This is the latest recevied weather packets stored in our database for station/object KD8YBJ. If no packets are shown the sender has not sent any weather packets the latest 10 day(s).
| Time | Temp. | Humidity | Pressure | Rain* | Wind** | Luminosity | Snow |
|---|---|---|---|---|---|---|---|
| 1777767018 | 6.67° C | 61% | 1016.4 hPa | 0 mm | - | 22 W/m² | - |
| 1777763416 | 7.78° C | 56% | 1016.7 hPa | 0 mm | - | 140 W/m² | - |
| 1777761636 | 8.33° C | 52% | 1016.7 hPa | 0 mm | - | 278 W/m² | - |
| 1777759237 | 8.89° C | 46% | 1016.8 hPa | 0 mm | - | 418 W/m² | - |
| 1777757417 | 9.44° C | 48% | 1016.7 hPa | 0 mm | - | 513 W/m² | - |
| 1777756817 | 9.44° C | 46% | 1016.6 hPa | 0 mm | - | 545 W/m² | - |
| 1777755639 | 9.44° C | 47% | 1016.8 hPa | 0 mm | - | 601 W/m² | - |
| 1777753818 | 10° C | 50% | 1017.1 hPa | 0 mm | - | 683 W/m² | - |
| 1777751417 | 9.44° C | 52% | 1017.5 hPa | 0 mm | - | 773 W/m² | - |
| 1777747838 | 8.89° C | 57% | 1018.1 hPa | 0 mm | - | 878 W/m² | - |
| 1777743618 | 8.33° C | 60% | 1018.4 hPa | 0 mm | - | 915 W/m² | - |
| 1777741820 | 8.89° C | 56% | 1018.3 hPa | 0 mm | - | 907 W/m² | - |
| 1777741216 | 8.33° C | 56% | 1018.3 hPa | 0 mm | - | 897 W/m² | - |
| 1777739416 | 8.33° C | 52% | 1018.3 hPa | 0 mm | - | 864 W/m² | - |
| 1777738218 | 8.33° C | 52% | 1018.1 hPa | 0 mm | - | 692 W/m² | - |
| 1777737017 | 8.33° C | 52% | 1018.7 hPa | 0 mm | - | 302 W/m² | - |
| 1777734017 | 7.22° C | 59% | 1018.5 hPa | 0 mm | - | 366 W/m² | - |
| 1777732218 | 6.67° C | 55% | 1018.9 hPa | 0 mm | - | 175 W/m² | - |
| 1777729215 | 5.56° C | 61% | 1018.6 hPa | 0 mm | - | 129 W/m² | - |
| 1777724427 | 2.78° C | 90% | 1018.9 hPa | 0 mm | - | 44 W/m² | - |
| 1777716017 | -0.56° C | 92% | 1019.3 hPa | 0 mm | - | 0 W/m² | - |
| 1777713038 | -0.56° C | 90% | 1019 hPa | 0 mm | - | 0 W/m² | - |
| 1777711817 | 0° C | 89% | 1018.9 hPa | 0 mm | - | 0 W/m² | - |
| 1777709417 | 0° C | 86% | 1019 hPa | 0 mm | - | 0 W/m² | - |
| 1777704019 | 2.78° C | 75% | 1019 hPa | 0 mm | - | 0 W/m² | - |
* Rain latest hour (hover to see other rain measurements)
** Current wind speed in m/s (hover to see current wind gust speed)